Time;durP1;ratioP1;P1;durP2;ratioP2;P2;SDS_P1;SDS_P2;PMS_P1;PMS_P2;Temp;Humidity;BMP_temperature;BMP_pressure;BME280_temperature;BME280_humidity;BME280_pressure;Samples;Min_cycle;Max_cycle;Signal;HPM_P1;HPM_P2
2021/11/18 00:02:06;;;;;;;14.05;2.90;;;8.60;99.90;;;;;;5110305;28;20059;-69
2021/11/18 00:04:31;;;;;;;15.02;3.30;;;8.60;99.90;;;;;;5107006;28;20086;-69
2021/11/18 00:06:57;;;;;;;15.52;3.03;;;8.60;99.90;;;;;;5108577;28;20281;-69
2021/11/18 00:09:24;;;;;;;21.08;4.50;;;8.70;99.90;;;;;;5106292;28;20252;-69
2021/11/18 00:11:50;;;;;;;22.40;4.22;;;8.70;99.90;;;;;;5106125;28;20225;-69
2021/11/18 00:14:18;;;;;;;25.85;5.07;;;8.80;99.90;;;;;;5108048;28;20027;-69
2021/11/18 00:16:45;;;;;;;23.15;3.13;;;8.90;99.90;;;;;;5111515;28;20050;-70
2021/11/18 00:19:11;;;;;;;17.52;4.68;;;8.90;99.90;;;;;;5106855;28;20059;-70
2021/11/18 00:21:39;;;;;;;20.63;3.63;;;8.90;99.90;;;;;;5110468;28;20280;-70
2021/11/18 00:24:07;;;;;;;19.58;3.50;;;8.70;99.90;;;;;;5109409;28;20095;-70
2021/11/18 00:26:34;;;;;;;17.98;4.43;;;8.70;99.90;;;;;;5108695;28;20027;-70
2021/11/18 00:29:00;;;;;;;11.25;2.42;;;8.70;99.90;;;;;;5109011;28;20028;-70
2021/11/18 00:31:33;;;;;;;21.08;3.13;;;8.60;99.90;;;;;;5109803;28;20365;-70
2021/11/18 00:33:59;;;;;;;14.13;2.90;;;8.60;99.90;;;;;;5106058;28;20268;-70
2021/11/18 00:36:26;;;;;;;16.67;2.60;;;8.60;99.90;;;;;;5105529;28;20031;-70
2021/11/18 00:38:53;;;;;;;14.38;3.20;;;8.60;99.90;;;;;;5108233;28;20122;-70
2021/11/18 00:41:20;;;;;;;21.70;2.75;;;8.60;99.90;;;;;;5104957;28;20034;-70
2021/11/18 00:43:47;;;;;;;15.95;2.33;;;8.60;99.90;;;;;;5109997;28;20043;-69
2021/11/18 00:46:13;;;;;;;19.77;2.88;;;8.60;99.90;;;;;;5104861;28;20276;-69
2021/11/18 00:48:40;;;;;;;20.15;3.38;;;8.60;99.90;;;;;;5108273;28;20032;-69
2021/11/18 00:51:11;;;;;;;22.67;3.33;;;8.60;99.90;;;;;;5107782;28;20043;-69
2021/11/18 00:53:41;;;;;;;27.70;4.57;;;8.60;99.90;;;;;;5109029;28;20316;-69
2021/11/18 00:56:07;;;;;;;;;;;8.60;99.90;;;;;;5108354;28;20035;-70
2021/11/18 00:58:33;;;;;;;26.58;3.95;;;8.70;99.90;;;;;;5108869;28;19911;-69
2021/11/18 01:01:00;;;;;;;20.70;4.82;;;8.70;99.90;;;;;;5090976;28;20614;-69
2021/11/18 01:03:27;;;;;;;22.33;4.18;;;8.70;99.90;;;;;;5110439;28;20256;-70
2021/11/18 01:05:54;;;;;;;19.42;3.38;;;8.80;99.90;;;;;;5108987;28;20089;-69
2021/11/18 01:08:21;;;;;;;30.02;5.63;;;8.80;99.90;;;;;;5112510;28;20030;-69
2021/11/18 01:10:57;;;;;;;30.40;5.03;;;8.90;99.90;;;;;;5110640;28;20055;-69
2021/11/18 01:13:24;;;;;;;25.27;4.07;;;9.00;99.90;;;;;;5112122;28;20031;-69
2021/11/18 01:15:50;;;;;;;12.65;2.70;;;9.00;99.90;;;;;;5112981;28;20167;-69
2021/11/18 01:18:17;;;;;;;14.77;2.55;;;9.00;99.90;;;;;;5112772;28;20108;-70
2021/11/18 01:20:43;;;;;;;21.08;3.13;;;9.00;99.90;;;;;;5094369;28;20032;-69
2021/11/18 01:23:14;;;;;;;10.88;2.38;;;9.00;99.90;;;;;;5094807;28;20065;-69
2021/11/18 01:25:41;;;;;;;10.10;2.90;;;9.00;99.90;;;;;;5110800;28;20055;-69
2021/11/18 01:28:08;;;;;;;15.18;2.45;;;8.90;99.90;;;;;;5112678;28;20309;-69
2021/11/18 01:30:36;;;;;;;16.63;2.88;;;8.90;99.90;;;;;;5109557;28;20122;-69
2021/11/18 01:33:05;;;;;;;15.80;2.88;;;8.90;99.90;;;;;;5112121;28;20363;-69
2021/11/18 01:35:31;;;;;;;18.00;2.83;;;8.90;99.90;;;;;;5107508;28;20027;-69
2021/11/18 01:37:57;;;;;;;17.55;3.03;;;8.90;99.90;;;;;;5106842;28;20318;-68
2021/11/18 01:40:28;;;;;;;16.33;2.65;;;8.90;99.90;;;;;;5114103;28;20038;-68
2021/11/18 01:42:55;;;;;;;10.90;2.85;;;8.90;99.90;;;;;;5110109;28;20318;-69
2021/11/18 01:45:24;;;;;;;25.40;3.97;;;8.90;99.90;;;;;;5108926;27;20317;-69
2021/11/18 01:47:50;;;;;;;19.50;3.42;;;9.00;99.90;;;;;;5112790;28;20341;-69
2021/11/18 01:50:17;;;;;;;20.20;3.58;;;8.90;99.90;;;;;;5111257;27;20043;-69
2021/11/18 01:52:44;;;;;;;24.20;3.30;;;9.00;99.90;;;;;;5112981;28;20023;-69
2021/11/18 01:55:11;;;;;;;15.98;3.20;;;8.90;99.90;;;;;;5111321;27;20035;-69
2021/11/18 01:57:38;;;;;;;16.50;2.92;;;8.90;99.90;;;;;;5110608;28;20054;-69
2021/11/18 02:00:19;;;;;;;14.52;2.55;;;8.90;99.90;;;;;;5111203;28;20386;-69
2021/11/18 02:02:46;;;;;;;13.85;2.97;;;8.90;99.90;;;;;;5109944;27;20037;-69
2021/11/18 02:05:20;;;;;;;17.17;2.97;;;8.90;99.90;;;;;;5110274;28;20039;-69
2021/11/18 02:07:48;;;;;;;25.67;4.30;;;9.00;99.90;;;;;;5110955;28;20039;-68
2021/11/18 02:10:17;;;;;;;17.90;3.53;;;8.90;99.90;;;;;;5110763;28;20054;-68
2021/11/18 02:12:43;;;;;;;17.67;4.03;;;9.00;99.90;;;;;;5109021;28;20051;-69
2021/11/18 02:15:32;;;;;;;21.45;4.40;;;9.00;99.90;;;;;;5109871;28;20047;-69
2021/11/18 02:18:01;;;;;;;16.02;3.22;;;9.10;99.90;;;;;;5110332;28;20028;-68
2021/11/18 02:20:34;;;;;;;22.48;3.80;;;9.20;99.90;;;;;;5090964;28;20094;-68
2021/11/18 02:23:01;;;;;;;20.35;3.78;;;9.20;99.90;;;;;;5107430;28;20369;-68
2021/11/18 02:25:30;;;;;;;23.40;4.95;;;9.20;99.90;;;;;;5111398;28;20098;-68
2021/11/18 02:27:58;;;;;;;24.55;4.97;;;9.30;99.90;;;;;;5092376;28;20042;-68
2021/11/18 02:30:26;;;;;;;20.80;4.75;;;9.30;99.90;;;;;;5108661;28;20047;-68
2021/11/18 02:32:55;;;;;;;19.17;3.80;;;9.40;99.90;;;;;;5107789;28;20390;-69
2021/11/18 02:35:25;;;;;;;25.83;4.70;;;9.40;99.90;;;;;;5108352;28;20411;-69
2021/11/18 02:37:52;;;;;;;22.08;4.53;;;9.40;99.90;;;;;;5108185;28;20394;-69
2021/11/18 02:40:19;;;;;;;20.92;4.40;;;9.40;99.90;;;;;;5110490;28;20268;-70
2021/11/18 02:42:45;;;;;;;31.67;4.28;;;9.40;99.90;;;;;;5110924;28;20024;-70
2021/11/18 02:45:16;;;;;;;32.85;5.65;;;9.40;99.90;;;;;;5108001;28;20035;-70
2021/11/18 02:47:42;;;;;;;20.23;4.05;;;9.40;99.90;;;;;;5108599;28;20068;-70
2021/11/18 02:50:11;;;;;;;23.55;4.93;;;9.30;99.90;;;;;;5108636;28;20043;-69
2021/11/18 02:52:38;;;;;;;24.27;3.95;;;9.20;99.90;;;;;;5106763;27;20030;-70
2021/11/18 02:55:11;;;;;;;23.65;4.32;;;9.30;99.90;;;;;;5091256;28;20039;-69
2021/11/18 02:57:37;;;;;;;30.35;5.10;;;9.30;99.90;;;;;;5109487;28;20019;-69
2021/11/18 03:00:14;;;;;;;32.00;5.28;;;9.30;99.90;;;;;;5110996;28;20345;-69
2021/11/18 03:02:40;;;;;;;25.83;4.88;;;9.20;99.90;;;;;;5108453;28;20027;-70
2021/11/18 03:05:08;;;;;;;29.60;3.80;;;9.30;99.90;;;;;;5109798;28;20031;-69
2021/11/18 03:07:34;;;;;;;25.33;4.47;;;9.30;99.90;;;;;;5107315;28;20617;-69
2021/11/18 03:10:02;;;;;;;18.48;3.67;;;9.30;99.90;;;;;;5110993;28;20079;-69
2021/11/18 03:12:28;;;;;;;13.00;3.17;;;9.30;99.90;;;;;;5108765;28;20027;-69
2021/11/18 03:14:54;;;;;;;15.68;3.28;;;9.20;99.90;;;;;;5106516;28;20031;-69
2021/11/18 03:17:20;;;;;;;19.02;2.17;;;9.20;99.90;;;;;;5110266;28;20108;-69
2021/11/18 03:19:46;;;;;;;14.43;2.90;;;9.10;99.90;;;;;;5106529;28;20274;-69
2021/11/18 03:22:12;;;;;;;11.55;2.88;;;9.10;99.90;;;;;;5093532;28;20362;-69
2021/11/18 03:24:39;;;;;;;14.25;3.00;;;9.20;99.90;;;;;;5109925;28;20051;-69
2021/11/18 03:27:05;;;;;;;26.73;4.32;;;9.20;99.90;;;;;;5107783;28;20054;-69
2021/11/18 03:29:32;;;;;;;29.58;4.05;;;9.20;99.90;;;;;;5109464;28;20043;-69
2021/11/18 03:31:58;;;;;;;23.13;4.30;;;9.10;99.90;;;;;;5092270;28;20024;-69
2021/11/18 03:34:29;;;;;;;19.50;3.33;;;9.20;99.90;;;;;;5093500;28;20071;-69
2021/11/18 03:36:55;;;;;;;32.90;3.85;;;9.20;99.90;;;;;;5107469;28;20226;-69
2021/11/18 03:39:22;;;;;;;17.33;3.53;;;9.20;99.90;;;;;;5109504;28;20034;-69
2021/11/18 03:41:53;;;;;;;17.85;3.72;;;9.20;99.90;;;;;;5108241;28;20036;-69
2021/11/18 03:44:20;;;;;;;21.98;3.20;;;9.20;99.90;;;;;;5111740;28;20023;-70
2021/11/18 03:46:50;;;;;;;21.95;3.53;;;9.20;99.90;;;;;;5108227;28;20027;-69
2021/11/18 03:49:17;;;;;;;26.42;4.72;;;9.20;99.90;;;;;;5076161;28;20326;-69
2021/11/18 03:51:45;;;;;;;23.17;3.80;;;9.20;99.90;;;;;;5108604;28;20042;-69
2021/11/18 03:54:13;;;;;;;23.42;4.03;;;9.20;99.90;;;;;;5110259;28;20278;-69
2021/11/18 03:56:39;;;;;;;19.70;4.60;;;9.30;99.90;;;;;;5107926;28;20151;-70
2021/11/18 03:59:22;;;;;;;25.02;4.35;;;9.30;99.90;;;;;;5108327;28;20036;-69
2021/11/18 04:01:50;;;;;;;25.88;4.18;;;9.30;99.90;;;;;;5105652;28;20035;-70
2021/11/18 04:04:20;;;;;;;24.48;4.55;;;9.40;99.90;;;;;;5107461;28;20046;-70
2021/11/18 04:06:46;;;;;;;;;;;9.40;99.90;;;;;;5109783;28;20024;-69
2021/11/18 04:09:13;;;;;;;23.70;4.07;;;9.40;99.90;;;;;;5107996;28;20244;-69
2021/11/18 04:11:41;;;;;;;23.10;4.30;;;9.40;99.90;;;;;;5104983;28;20158;-70
2021/11/18 04:14:08;;;;;;;30.08;4.55;;;9.40;99.90;;;;;;5108342;28;20796;-70
2021/11/18 04:16:35;;;;;;;38.88;5.72;;;9.40;99.90;;;;;;5110418;28;20038;-70
2021/11/18 04:19:01;;;;;;;23.33;4.43;;;9.40;99.90;;;;;;5109725;28;20055;-69
2021/11/18 04:21:31;;;;;;;24.88;4.57;;;9.40;99.90;;;;;;5109353;28;20350;-69
2021/11/18 04:23:58;;;;;;;34.38;5.28;;;9.40;99.90;;;;;;5107914;28;20235;-70
2021/11/18 04:26:25;;;;;;;31.58;5.45;;;9.40;99.90;;;;;;5104464;28;20027;-70
2021/11/18 04:28:51;;;;;;;24.58;4.90;;;9.40;99.90;;;;;;5106827;28;20191;-70
2021/11/18 04:31:22;;;;;;;28.13;5.07;;;9.40;99.90;;;;;;5106045;28;20032;-70
2021/11/18 04:33:48;;;;;;;19.98;4.53;;;9.50;99.90;;;;;;5107776;28;20039;-69
2021/11/18 04:36:18;;;;;;;27.48;4.95;;;9.60;99.90;;;;;;5106042;28;20031;-70
2021/11/18 04:38:44;;;;;;;;;;;9.60;99.90;;;;;;5104502;28;20020;-69
2021/11/18 04:41:11;;;;;;;27.35;4.72;;;9.60;99.90;;;;;;5114446;28;20097;-69
2021/11/18 04:43:38;;;;;;;26.00;4.68;;;9.70;99.90;;;;;;5107042;28;20032;-70
2021/11/18 04:46:09;;;;;;;34.17;4.50;;;9.70;99.90;;;;;;5111116;28;20417;-69
2021/11/18 04:48:37;;;;;;;20.05;4.03;;;9.80;99.90;;;;;;5110072;28;20051;-70
2021/11/18 04:51:05;;;;;;;25.55;4.90;;;9.80;99.90;;;;;;5107912;28;20040;-70
2021/11/18 04:53:31;;;;;;;40.28;5.40;;;9.80;99.90;;;;;;5108087;28;20038;-70
2021/11/18 04:55:58;;;;;;;21.25;4.47;;;9.80;99.90;;;;;;5100583;28;20032;-67
2021/11/18 04:58:24;;;;;;;27.63;4.95;;;9.90;99.90;;;;;;5107536;28;20019;-69
2021/11/18 05:00:54;;;;;;;26.90;5.57;;;9.80;99.90;;;;;;5102111;28;20023;-69
2021/11/18 05:03:22;;;;;;;20.08;4.70;;;9.90;99.90;;;;;;5108746;28;20100;-69
2021/11/18 05:05:49;;;;;;;27.05;4.88;;;9.80;99.90;;;;;;5107012;28;20028;-70
2021/11/18 05:08:16;;;;;;;33.97;5.28;;;9.80;99.90;;;;;;5105183;28;20020;-69
2021/11/18 05:10:45;;;;;;;27.75;6.78;;;9.90;99.90;;;;;;5103620;28;20047;-70
2021/11/18 05:13:12;;;;;;;34.42;5.55;;;9.90;99.90;;;;;;5108137;28;20024;-69
2021/11/18 05:15:40;;;;;;;27.70;5.78;;;9.90;99.90;;;;;;5101267;27;20038;-71
2021/11/18 05:18:08;;;;;;;31.83;5.57;;;9.90;99.90;;;;;;5103654;28;20192;-70
2021/11/18 05:20:34;;;;;;;30.08;6.40;;;10.00;99.90;;;;;;5106302;28;20031;-70
2021/11/18 05:23:01;;;;;;;32.72;4.82;;;10.00;99.90;;;;;;5107702;28;20038;-70
2021/11/18 05:25:29;;;;;;;19.20;4.70;;;10.00;99.90;;;;;;5106499;28;20206;-70
2021/11/18 05:27:56;;;;;;;27.85;5.15;;;10.00;99.90;;;;;;5110638;28;20273;-71
2021/11/18 05:30:27;;;;;;;29.25;5.85;;;10.00;99.90;;;;;;5109635;28;20078;-70
2021/11/18 05:32:54;;;;;;;24.35;5.20;;;10.00;99.90;;;;;;5108468;28;20079;-70
2021/11/18 05:35:21;;;;;;;27.20;5.10;;;10.00;99.90;;;;;;5105152;28;20403;-70
2021/11/18 05:37:47;;;;;;;28.65;4.85;;;10.00;99.90;;;;;;5108685;28;20439;-70
2021/11/18 05:40:13;;;;;;;33.20;6.32;;;10.00;99.90;;;;;;5107250;28;20034;-70
2021/11/18 05:42:40;;;;;;;23.92;4.97;;;10.00;99.90;;;;;;5106955;28;20083;-70
2021/11/18 05:45:09;;;;;;;21.35;4.80;;;10.00;99.90;;;;;;5105104;28;20510;-70
2021/11/18 05:47:35;;;;;;;25.13;5.37;;;10.00;99.90;;;;;;5111725;28;20180;-70
2021/11/18 05:50:01;;;;;;;31.88;4.35;;;10.00;99.90;;;;;;5109866;28;20322;-70
2021/11/18 05:52:27;;;;;;;25.25;4.55;;;10.00;99.90;;;;;;5108017;28;20555;-70
2021/11/18 05:54:55;;;;;;;25.20;4.25;;;10.10;99.90;;;;;;5111264;27;20090;-70
2021/11/18 05:57:22;;;;;;;26.05;4.78;;;10.10;99.90;;;;;;5112174;28;20398;-71
2021/11/18 05:59:49;;;;;;;29.63;5.00;;;10.10;99.90;;;;;;5091168;28;20059;-71
2021/11/18 06:02:15;;;;;;;28.58;4.85;;;10.10;99.90;;;;;;5105757;28;20023;-71
2021/11/18 06:04:41;;;;;;;26.00;5.55;;;10.10;99.90;;;;;;5111626;28;20028;-71
2021/11/18 06:07:08;;;;;;;21.90;5.10;;;10.10;99.90;;;;;;5110419;28;20324;-71
2021/11/18 06:09:34;;;;;;;29.58;5.93;;;10.10;99.90;;;;;;5110052;28;20227;-71
2021/11/18 06:12:00;;;;;;;26.00;5.32;;;10.20;99.90;;;;;;5109113;28;20047;-71
2021/11/18 06:14:26;;;;;;;24.58;4.68;;;10.20;99.90;;;;;;5111402;28;20029;-71
2021/11/18 06:16:53;;;;;;;25.42;4.72;;;10.20;99.90;;;;;;5089597;28;20026;-71
2021/11/18 06:19:19;;;;;;;23.02;4.38;;;10.20;99.90;;;;;;5112079;28;20268;-71
2021/11/18 06:21:48;;;;;;;29.05;5.68;;;10.20;99.90;;;;;;5109604;28;20028;-71
2021/11/18 06:24:16;;;;;;;29.30;5.13;;;10.30;99.90;;;;;;5111632;28;20023;-71
2021/11/18 06:26:42;;;;;;;28.15;4.80;;;10.30;99.90;;;;;;5110592;28;20261;-71
2021/11/18 06:29:08;;;;;;;26.75;5.18;;;10.30;99.90;;;;;;5110397;28;20115;-71
2021/11/18 06:31:35;;;;;;;25.70;6.00;;;10.30;99.90;;;;;;5111776;28;20100;-71
2021/11/18 06:34:01;;;;;;;35.58;5.75;;;10.30;99.90;;;;;;5111239;28;20222;-71
2021/11/18 06:36:27;;;;;;;25.60;4.82;;;10.30;99.90;;;;;;5094113;28;20038;-71
2021/11/18 06:38:53;;;;;;;30.73;5.05;;;10.30;99.90;;;;;;5109625;28;20055;-70
2021/11/18 06:41:22;;;;;;;30.13;5.63;;;10.30;99.90;;;;;;5109539;28;20130;-71
2021/11/18 06:43:49;;;;;;;27.00;4.90;;;10.30;99.90;;;;;;5075626;28;20197;-71
2021/11/18 06:46:16;;;;;;;45.50;6.13;;;10.40;99.90;;;;;;5109241;28;20036;-71
2021/11/18 06:48:42;;;;;;;23.80;4.60;;;10.30;99.90;;;;;;5109766;28;20390;-70
2021/11/18 06:51:16;;;;;;;23.58;4.53;;;10.40;99.90;;;;;;5109360;28;20301;-71
2021/11/18 06:53:43;;;;;;;25.27;5.15;;;10.40;99.90;;;;;;5110529;28;20061;-71
2021/11/18 06:56:10;;;;;;;32.45;5.50;;;10.50;99.90;;;;;;5109305;28;20199;-71
2021/11/18 06:58:36;;;;;;;26.52;5.50;;;10.40;99.90;;;;;;5110109;28;20027;-71
2021/11/18 07:01:04;;;;;;;36.92;5.43;;;10.40;99.90;;;;;;5106619;28;20019;-71
2021/11/18 07:03:30;;;;;;;32.55;6.70;;;10.50;99.90;;;;;;5110473;28;20296;-71
2021/11/18 07:05:56;;;;;;;30.80;5.75;;;10.50;99.90;;;;;;5110417;28;20027;-71
2021/11/18 07:08:22;;;;;;;22.88;5.00;;;10.50;99.90;;;;;;5112310;28;20051;-71
2021/11/18 07:10:48;;;;;;;21.05;3.95;;;10.50;99.90;;;;;;5109168;28;20071;-71
2021/11/18 07:13:21;;;;;;;27.77;5.82;;;10.50;99.90;;;;;;5090662;28;20246;-71
2021/11/18 07:15:48;;;;;;;28.10;5.32;;;10.50;99.90;;;;;;5110341;28;20388;-71
2021/11/18 07:18:14;;;;;;;29.38;6.30;;;10.50;99.90;;;;;;5107922;28;20090;-71
2021/11/18 07:20:41;;;;;;;27.35;4.45;;;10.50;99.90;;;;;;5107473;28;20027;-71
2021/11/18 07:23:07;;;;;;;28.05;5.18;;;10.50;99.90;;;;;;5109474;28;20318;-71
2021/11/18 07:25:34;;;;;;;27.35;4.88;;;10.50;99.90;;;;;;5108621;28;20027;-71
2021/11/18 07:28:01;;;;;;;28.42;5.70;;;10.50;99.90;;;;;;5108856;28;20028;-71
2021/11/18 07:30:28;;;;;;;33.20;5.78;;;10.50;99.90;;;;;;5108579;28;20059;-71
2021/11/18 07:32:54;;;;;;;26.88;5.18;;;10.50;99.90;;;;;;5108251;28;20026;-71
2021/11/18 07:35:20;;;;;;;25.38;5.28;;;10.60;99.90;;;;;;5109481;28;20031;-71
2021/11/18 07:37:46;;;;;;;32.95;6.68;;;10.50;99.90;;;;;;5109176;28;20023;-71
2021/11/18 07:40:14;;;;;;;29.13;6.07;;;10.50;99.90;;;;;;5109759;28;20234;-71
2021/11/18 07:42:40;;;;;;;33.40;6.55;;;10.60;99.90;;;;;;5109625;28;20091;-71
2021/11/18 07:45:08;;;;;;;22.02;4.65;;;10.60;99.90;;;;;;5110010;28;20198;-71
2021/11/18 07:47:34;;;;;;;33.70;7.93;;;10.60;99.90;;;;;;5110641;28;20375;-71
2021/11/18 07:50:01;;;;;;;28.27;5.20;;;10.60;99.90;;;;;;5109333;28;20326;-71
2021/11/18 07:52:26;;;;;;;26.75;5.50;;;10.60;99.90;;;;;;5108774;28;20251;-71
2021/11/18 07:54:52;;;;;;;29.67;5.60;;;10.60;99.90;;;;;;5109934;28;20045;-71
2021/11/18 07:57:19;;;;;;;28.70;5.82;;;10.60;99.90;;;;;;5110178;28;20038;-70
2021/11/18 07:59:45;;;;;;;30.23;5.43;;;10.60;99.90;;;;;;5109780;28;20114;-70
2021/11/18 08:02:11;;;;;;;27.13;4.82;;;10.60;99.90;;;;;;5090009;28;20538;-70
2021/11/18 08:04:36;;;;;;;22.23;4.20;;;10.60;99.90;;;;;;5110737;28;20274;-70
2021/11/18 08:07:04;;;;;;;35.38;6.78;;;10.60;99.90;;;;;;5110015;28;20062;-71
2021/11/18 08:09:31;;;;;;;22.60;5.47;;;10.50;99.90;;;;;;5111177;28;20047;-70
2021/11/18 08:12:00;;;;;;;25.25;5.15;;;10.50;99.90;;;;;;5112721;28;20054;-71
2021/11/18 08:14:26;;;;;;;28.05;4.75;;;10.50;99.90;;;;;;5110127;28;20408;-70
2021/11/18 08:16:54;;;;;;;28.70;5.63;;;10.50;99.90;;;;;;5115845;28;20046;-70
2021/11/18 08:19:20;;;;;;;30.48;5.43;;;10.50;99.90;;;;;;5113527;28;20031;-70
2021/11/18 08:21:48;;;;;;;30.33;5.35;;;10.50;99.90;;;;;;5111838;28;20069;-71
2021/11/18 08:24:16;;;;;;;24.65;4.88;;;10.60;99.90;;;;;;5113781;28;20038;-70
2021/11/18 08:26:43;;;;;;;27.50;5.85;;;10.60;99.90;;;;;;5096727;28;20023;-70
2021/11/18 08:29:11;;;;;;;23.58;4.82;;;10.60;99.90;;;;;;5111544;28;20031;-70
2021/11/18 08:31:38;;;;;;;27.15;5.05;;;10.60;99.90;;;;;;5112596;28;20042;-70
2021/11/18 08:34:04;;;;;;;25.25;6.60;;;10.60;99.90;;;;;;5115955;28;20030;-70
2021/11/18 08:36:31;;;;;;;25.85;5.13;;;10.60;99.90;;;;;;5113858;28;20027;-70
2021/11/18 08:38:57;;;;;;;27.48;4.93;;;10.60;99.90;;;;;;5114555;28;20094;-70
2021/11/18 08:41:23;;;;;;;23.23;5.32;;;10.60;99.90;;;;;;5109821;28;20031;-70
2021/11/18 08:43:53;;;;;;;27.33;5.57;;;10.60;99.90;;;;;;5113356;28;20113;-70
2021/11/18 08:46:21;;;;;;;27.45;5.22;;;10.60;99.90;;;;;;5109308;28;20317;-70
2021/11/18 08:48:48;;;;;;;29.88;5.57;;;10.60;99.90;;;;;;5113716;28;20381;-70
2021/11/18 08:51:18;;;;;;;30.20;5.13;;;10.60;99.90;;;;;;5112406;28;20031;-70
2021/11/18 08:53:48;;;;;;;31.85;6.55;;;10.70;99.90;;;;;;5111583;27;20419;-70
2021/11/18 08:56:14;;;;;;;27.67;5.40;;;10.70;99.90;;;;;;5111705;28;20031;-70
2021/11/18 08:58:43;;;;;;;28.35;5.95;;;10.70;99.90;;;;;;5113137;28;20050;-70
2021/11/18 09:01:15;;;;;;;26.23;5.15;;;10.70;99.90;;;;;;5113161;28;20034;-70
2021/11/18 09:03:42;;;;;;;25.63;4.82;;;10.60;99.90;;;;;;5114209;28;20031;-70
2021/11/18 09:06:10;;;;;;;29.13;6.10;;;10.60;99.90;;;;;;5113000;28;20039;-70
2021/11/18 09:08:37;;;;;;;31.00;5.30;;;10.60;99.90;;;;;;5111043;28;20027;-71
2021/11/18 09:11:07;;;;;;;28.67;5.25;;;10.60;99.90;;;;;;5110431;28;20048;-71
2021/11/18 09:13:32;;;;;;;26.20;4.80;;;10.70;99.90;;;;;;5112879;28;20042;-71
2021/11/18 09:15:59;;;;;;;26.17;5.32;;;10.60;99.90;;;;;;5112159;28;20073;-71
2021/11/18 09:18:24;;;;;;;36.47;5.95;;;10.60;99.90;;;;;;5112562;28;20260;-71
2021/11/18 09:20:54;;;;;;;31.00;6.57;;;10.60;99.90;;;;;;5112403;28;20090;-71
2021/11/18 09:23:23;;;;;;;35.67;5.47;;;10.70;99.90;;;;;;5109959;28;20411;-71
2021/11/18 09:25:51;;;;;;;34.97;5.37;;;10.60;99.90;;;;;;5094707;28;20032;-71
2021/11/18 09:28:20;;;;;;;24.80;5.25;;;10.60;99.90;;;;;;5110807;28;20032;-71
2021/11/18 09:30:56;;;;;;;30.25;6.20;;;10.70;99.90;;;;;;5110744;28;20035;-71
2021/11/18 09:33:23;;;;;;;38.92;5.85;;;10.70;99.90;;;;;;5113992;28;20402;-71
2021/11/18 09:35:53;;;;;;;36.63;5.72;;;10.60;99.90;;;;;;5112155;28;20282;-71
2021/11/18 09:38:21;;;;;;;32.05;5.15;;;10.70;99.90;;;;;;5109551;28;20028;-71
2021/11/18 09:40:52;;;;;;;27.80;5.88;;;10.60;99.90;;;;;;5114295;28;20092;-71
2021/11/18 09:43:49;;;;;;;33.67;6.15;;;10.60;99.90;;;;;;5112860;28;20378;-70
2021/11/18 09:46:56;;;;;;;41.30;6.57;;;10.60;99.90;;;;;;5094228;28;20089;-71
2021/11/18 09:49:43;;;;;;;24.33;5.18;;;10.70;99.90;;;;;;5087398;28;20043;-71
2021/11/18 09:52:38;;;;;;;31.67;5.80;;;10.70;99.90;;;;;;5113977;28;20226;-70
2021/11/18 09:55:18;;;;;;;29.30;5.05;;;10.70;99.90;;;;;;5078176;28;20053;-71
2021/11/18 09:57:53;;;;;;;;;;;10.70;99.90;;;;;;5114657;28;20343;-70
2021/11/18 10:00:24;;;;;;;27.92;5.93;;;10.80;99.90;;;;;;5110689;28;20114;-71
2021/11/18 10:03:02;;;;;;;31.77;7.13;;;10.80;99.90;;;;;;5114114;28;20034;-71
2021/11/18 10:05:42;;;;;;;38.72;6.25;;;10.80;99.90;;;;;;5111835;28;20336;-71
2021/11/18 10:08:10;;;;;;;;;;;10.80;99.90;;;;;;5110455;28;20055;-71
2021/11/18 10:10:47;;;;;;;25.10;5.15;;;10.80;99.90;;;;;;5111097;28;19920;-70
2021/11/18 10:13:16;;;;;;;23.90;5.30;;;10.80;99.90;;;;;;5092154;28;20369;-71
2021/11/18 10:16:03;;;;;;;19.05;5.22;;;10.80;99.90;;;;;;5111414;28;20031;-71
2021/11/18 10:18:36;;;;;;;31.05;6.70;;;10.90;99.90;;;;;;5110330;28;20371;-71
2021/11/18 10:21:15;;;;;;;25.13;5.90;;;10.90;99.90;;;;;;5111795;28;20035;-70
2021/11/18 10:23:42;;;;;;;28.77;5.67;;;10.90;99.90;;;;;;5109502;28;20015;-70
2021/11/18 10:26:13;;;;;;;35.95;7.25;;;10.90;99.90;;;;;;5111144;28;20031;-71
2021/11/18 10:29:00;;;;;;;20.60;6.07;;;11.00;99.90;;;;;;5110127;28;20190;-71
2021/11/18 10:32:09;;;;;;;24.48;6.18;;;11.00;99.90;;;;;;5111316;28;20360;-71
2021/11/18 10:34:56;;;;;;;32.88;7.03;;;11.00;99.90;;;;;;5112271;28;20417;-71
2021/11/18 10:37:34;;;;;;;24.80;6.07;;;11.00;99.90;;;;;;5110351;28;20245;-70
2021/11/18 10:40:02;;;;;;;23.45;6.00;;;11.00;99.90;;;;;;5106221;28;20092;-71
2021/11/18 10:42:36;;;;;;;22.40;5.75;;;11.10;99.90;;;;;;5110442;28;20028;-71
2021/11/18 10:45:34;;;;;;;14.60;4.60;;;11.10;99.90;;;;;;5108829;28;20050;-70
2021/11/18 10:48:22;;;;;;;19.90;5.80;;;11.20;99.90;;;;;;5112723;28;20070;-71
2021/11/18 10:50:48;;;;;;;19.63;3.97;;;11.10;99.90;;;;;;5109768;28;20039;-70
2021/11/18 10:53:17;;;;;;;24.17;4.95;;;11.20;99.90;;;;;;5113389;27;20080;-71
2021/11/18 10:56:00;;;;;;;17.63;4.28;;;11.20;99.90;;;;;;5106123;28;20084;-71
2021/11/18 10:58:26;;;;;;;16.98;4.20;;;11.20;99.90;;;;;;5109056;28;20359;-71
2021/11/18 11:01:20;;;;;;;23.55;4.63;;;11.20;99.90;;;;;;5108150;28;20057;-70
2021/11/18 11:03:46;;;;;;;11.13;3.97;;;11.20;99.90;;;;;;5109097;28;20031;-70
2021/11/18 11:06:20;;;;;;;15.63;4.63;;;11.20;99.90;;;;;;5095319;28;20031;-70
2021/11/18 11:09:08;;;;;;;25.27;4.45;;;11.30;99.90;;;;;;5110864;28;20272;-71
2021/11/18 11:12:00;;;;;;;16.88;5.03;;;11.20;99.90;;;;;;5109516;28;20312;-70
2021/11/18 11:14:51;;;;;;;20.58;3.63;;;11.30;99.90;;;;;;5110385;28;22715;-70
2021/11/18 11:17:28;;;;;;;15.88;4.28;;;11.30;99.90;;;;;;5109147;28;20070;-70
2021/11/18 11:20:00;;;;;;;18.02;4.28;;;11.30;99.90;;;;;;5108317;28;20357;-70
2021/11/18 11:22:53;;;;;;;10.73;3.70;;;11.30;99.90;;;;;;5111028;28;20084;-70
2021/11/18 11:25:33;;;;;;;21.70;4.72;;;11.30;99.90;;;;;;5112674;28;20031;-70
2021/11/18 11:28:09;;;;;;;26.42;5.75;;;11.40;99.90;;;;;;5112158;28;20051;-70
2021/11/18 11:30:52;;;;;;;18.73;4.28;;;11.40;99.90;;;;;;5110697;28;20044;-71
2021/11/18 11:33:29;;;;;;;27.27;6.10;;;11.40;99.90;;;;;;5108900;28;20024;-71
2021/11/18 11:36:23;;;;;;;30.90;6.35;;;11.40;99.90;;;;;;5085695;28;20228;-70
2021/11/18 11:39:30;;;;;;;36.47;7.07;;;11.50;99.90;;;;;;5099699;28;20031;-71
2021/11/18 11:42:15;;;;;;;34.28;6.03;;;11.50;99.90;;;;;;5046392;28;20048;-70
2021/11/18 11:45:08;;;;;;;41.40;7.35;;;11.50;99.90;;;;;;5103168;28;20346;-71
2021/11/18 11:47:43;;;;;;;32.03;6.05;;;11.50;99.90;;;;;;5110155;28;20288;-70
2021/11/18 11:50:52;;;;;;;34.50;7.00;;;11.50;99.90;;;;;;5108307;28;20354;-71
2021/11/18 11:53:40;;;;;;;38.65;7.30;;;11.60;99.90;;;;;;5090903;28;20031;-71
2021/11/18 11:56:24;;;;;;;32.97;6.53;;;11.60;99.90;;;;;;5125071;27;20276;-71
2021/11/18 11:58:59;;;;;;;29.40;7.55;;;11.60;99.90;;;;;;5084762;28;20034;-71
2021/11/18 12:01:29;;;;;;;32.55;7.35;;;11.60;99.90;;;;;;5111382;28;20117;-71
2021/11/18 12:04:01;;;;;;;;;;;11.60;99.90;;;;;;5111265;28;20022;-71
2021/11/18 12:06:39;;;;;;;28.48;7.00;;;11.60;99.90;;;;;;5109536;28;19987;-71
2021/11/18 12:09:33;;;;;;;26.10;6.85;;;11.70;99.90;;;;;;5111025;28;20023;-71
2021/11/18 12:12:10;;;;;;;31.60;6.53;;;11.70;99.90;;;;;;5111678;28;20044;-71
2021/11/18 12:14:44;;;;;;;32.40;6.60;;;11.70;99.90;;;;;;5107875;28;20036;-71
2021/11/18 12:17:22;;;;;;;27.45;5.75;;;11.70;99.90;;;;;;5112353;28;20031;-71
2021/11/18 12:19:53;;;;;;;23.52;5.78;;;11.70;99.90;;;;;;5111967;28;20225;-70
2021/11/18 12:22:32;;;;;;;34.45;6.53;;;11.70;99.90;;;;;;5108734;28;20061;-70
2021/11/18 12:25:04;;;;;;;31.58;7.60;;;11.70;99.90;;;;;;5108113;28;20031;-70
2021/11/18 12:27:33;;;;;;;27.17;6.07;;;11.70;99.90;;;;;;5108395;28;20070;-71
2021/11/18 12:30:30;;;;;;;27.98;6.43;;;11.80;99.90;;;;;;5108110;28;20286;-70
2021/11/18 12:33:06;;;;;;;34.47;6.15;;;11.80;99.90;;;;;;5110253;28;20381;-71
2021/11/18 12:35:32;;;;;;;28.10;5.68;;;11.80;99.90;;;;;;5110226;28;20024;-70
2021/11/18 12:37:58;;;;;;;28.90;6.57;;;11.80;99.90;;;;;;5109096;28;20033;-71
2021/11/18 12:40:42;;;;;;;34.28;6.32;;;11.80;99.90;;;;;;5104648;28;20034;-71
2021/11/18 12:43:11;;;;;;;26.75;5.90;;;11.80;99.90;;;;;;5093670;28;20327;-70
2021/11/18 12:45:38;;;;;;;25.70;5.57;;;11.80;99.90;;;;;;5106505;28;20016;-71
2021/11/18 12:48:14;;;;;;;34.92;5.82;;;11.80;99.90;;;;;;5111683;28;20024;-71
2021/11/18 12:50:47;;;;;;;29.60;5.28;;;11.80;99.90;;;;;;5107464;28;20058;-71
2021/11/18 12:53:16;;;;;;;24.58;4.85;;;11.90;99.90;;;;;;5108062;28;20196;-71
2021/11/18 12:56:15;;;;;;;36.90;6.03;;;11.90;99.90;;;;;;5105268;28;20092;-71
2021/11/18 12:59:05;;;;;;;28.85;4.75;;;11.90;99.90;;;;;;5078569;28;20214;-71
2021/11/18 13:01:31;;;;;;;;;;;11.90;99.90;;;;;;5112787;28;20036;-71